createdAt,value
2017-02-22T00:00:12.685Z,0
2017-02-22T00:01:13.508Z,0
2017-02-22T00:02:13.279Z,0
2017-02-22T00:03:13.413Z,0
2017-02-22T00:04:13.255Z,0
2017-02-22T00:05:13.241Z,0
2017-02-22T00:06:12.945Z,0
2017-02-22T00:07:13.232Z,0
2017-02-22T00:08:12.943Z,0
2017-02-22T00:09:12.816Z,0
2017-02-22T00:10:13.293Z,0
2017-02-22T00:11:13.176Z,0
2017-02-22T00:12:13.161Z,0
2017-02-22T00:13:13.155Z,0
2017-02-22T00:14:13.129Z,0
2017-02-22T00:15:12.740Z,0
2017-02-22T00:16:12.706Z,0
2017-02-22T00:17:13.099Z,0
2017-02-22T00:18:13.091Z,0
2017-02-22T00:19:13.081Z,0
2017-02-22T00:20:12.685Z,0
2017-02-22T00:21:12.648Z,0
2017-02-22T00:22:13.044Z,0
2017-02-22T00:23:12.620Z,0
2017-02-22T00:24:12.605Z,0
2017-02-22T00:25:12.993Z,0
2017-02-22T00:26:12.969Z,0
2017-02-22T00:27:12.969Z,0
2017-02-22T00:28:12.564Z,0
2017-02-22T00:29:12.544Z,0
2017-02-22T00:30:12.522Z,0
2017-02-22T00:31:12.920Z,0
2017-02-22T00:32:12.897Z,0
2017-02-22T00:33:12.894Z,0
2017-02-22T00:34:12.474Z,0
2017-02-22T00:35:12.870Z,0
2017-02-22T00:36:12.061Z,0
2017-02-22T00:37:12.836Z,0
2017-02-22T00:38:12.433Z,0
2017-02-22T00:39:12.420Z,0
2017-02-22T00:40:12.805Z,0
2017-02-22T00:41:12.395Z,0
2017-02-22T00:42:12.770Z,0
2017-02-22T00:43:12.764Z,0
2017-02-22T00:44:12.774Z,0
2017-02-22T00:45:12.344Z,0
2017-02-22T00:46:12.334Z,0
2017-02-22T00:47:12.307Z,0
2017-02-22T00:48:12.309Z,0
2017-02-22T00:49:12.681Z,0
2017-02-22T00:50:12.674Z,0
2017-02-22T00:51:12.665Z,0
2017-02-22T00:52:12.243Z,0
2017-02-22T00:53:12.753Z,0
2017-02-22T00:54:12.624Z,0
2017-02-22T00:55:12.219Z,0
2017-02-22T00:56:11.795Z,0
2017-02-22T00:57:12.194Z,0
2017-02-22T00:58:12.178Z,0
2017-02-22T00:59:12.569Z,0
2017-02-22T01:00:12.544Z,0
2017-02-22T01:01:12.551Z,0
2017-02-22T01:02:12.116Z,0
2017-02-22T01:03:12.512Z,0
2017-02-22T01:04:12.499Z,0
2017-02-22T01:05:12.492Z,0
2017-02-22T01:06:12.469Z,0
2017-02-22T01:07:12.455Z,0
2017-02-22T01:08:12.445Z,0
2017-02-22T01:09:12.437Z,0
2017-02-22T01:10:12.418Z,0
2017-02-22T01:11:12.428Z,0
2017-02-22T01:12:12.398Z,0
2017-02-22T01:13:12.384Z,0
2017-02-22T01:14:11.968Z,0
2017-02-22T01:15:11.958Z,0
2017-02-22T01:16:11.958Z,0
2017-02-22T01:17:12.343Z,0
2017-02-22T01:18:11.941Z,0
2017-02-22T01:19:12.312Z,0
2017-02-22T01:20:11.918Z,0
2017-02-22T01:21:12.292Z,0
2017-02-22T01:22:12.277Z,0
2017-02-22T01:23:12.254Z,0
2017-02-22T01:24:12.242Z,0
2017-02-22T01:25:12.227Z,0
2017-02-22T01:26:12.218Z,0
2017-02-22T01:27:12.201Z,0
2017-02-22T01:28:12.203Z,0
2017-02-22T01:29:11.387Z,0
2017-02-22T01:30:11.779Z,0
2017-02-22T01:31:12.166Z,0
2017-02-22T01:32:11.748Z,0
2017-02-22T01:33:12.132Z,0
2017-02-22T01:34:11.365Z,0
2017-02-22T01:35:12.106Z,0
2017-02-22T01:36:12.104Z,0
2017-02-22T01:37:11.681Z,0
2017-02-22T01:38:12.068Z,0
2017-02-22T01:39:12.069Z,0
2017-02-22T01:40:11.652Z,0
2017-02-22T01:41:12.040Z,0
2017-02-22T01:42:12.050Z,0
2017-02-22T01:43:12.019Z,0
2017-02-22T01:44:11.990Z,0
2017-02-22T01:45:11.971Z,0
2017-02-22T01:46:11.978Z,0
2017-02-22T01:47:11.969Z,0
2017-02-22T01:48:11.544Z,0
2017-02-22T01:49:11.952Z,0
2017-02-22T01:50:11.921Z,0
2017-02-22T01:51:11.911Z,0
2017-02-22T01:52:11.893Z,0
2017-02-22T01:53:11.480Z,0
2017-02-22T01:54:11.867Z,0
2017-02-22T01:55:11.855Z,0
2017-02-22T01:56:11.453Z,0
2017-02-22T01:57:11.826Z,0
2017-02-22T01:58:11.432Z,0
2017-02-22T01:59:11.802Z,0
2017-02-22T02:00:11.786Z,0
2017-02-22T02:01:11.782Z,0
2017-02-22T02:02:10.970Z,0
2017-02-22T02:03:11.755Z,0
2017-02-22T02:04:11.747Z,0
2017-02-22T02:05:11.733Z,0
2017-02-22T02:06:11.329Z,0
2017-02-22T02:07:11.307Z,0
2017-02-22T02:08:11.686Z,0
2017-02-22T02:09:11.292Z,0
2017-02-22T02:10:11.664Z,0
2017-02-22T02:11:11.675Z,0
2017-02-22T02:12:11.657Z,0
2017-02-22T02:13:11.640Z,0
2017-02-22T02:14:11.638Z,0
2017-02-22T02:15:11.605Z,0
2017-02-22T02:16:11.599Z,0
2017-02-22T02:17:11.580Z,0
2017-02-22T02:18:11.172Z,0
2017-02-22T02:19:11.554Z,0
2017-02-22T02:20:10.743Z,0
2017-02-22T02:21:11.546Z,0
2017-02-22T02:22:11.519Z,0
2017-02-22T02:23:11.117Z,0
2017-02-22T02:24:11.495Z,0
2017-02-22T02:25:11.483Z,0
2017-02-22T02:26:11.469Z,0
2017-02-22T02:27:11.072Z,0
2017-02-22T02:28:11.457Z,0
2017-02-22T02:29:11.434Z,0
2017-02-22T02:30:11.027Z,0
2017-02-22T02:31:11.403Z,0
2017-02-22T02:32:11.027Z,0
2017-02-22T02:33:11.382Z,0
2017-02-22T02:34:11.379Z,0
2017-02-22T02:35:11.365Z,0
2017-02-22T02:36:11.368Z,0
2017-02-22T02:37:11.346Z,0
2017-02-22T02:38:10.938Z,0
2017-02-22T02:39:11.310Z,0
2017-02-22T02:40:11.312Z,0
2017-02-22T02:41:11.290Z,0
2017-02-22T02:42:10.488Z,0
2017-02-22T02:43:11.267Z,0
2017-02-22T02:44:11.258Z,0
2017-02-22T02:45:10.453Z,0
2017-02-22T02:46:11.227Z,0
2017-02-22T02:47:10.815Z,0
2017-02-22T02:48:10.811Z,0
2017-02-22T02:49:11.184Z,0
2017-02-22T02:50:40.142Z,0
2017-02-22T02:51:11.166Z,0
2017-02-22T02:52:11.169Z,0
2017-02-22T02:53:11.150Z,0
2017-02-22T02:54:11.133Z,0
2017-02-22T02:55:11.127Z,0
2017-02-22T02:56:10.723Z,0
2017-02-22T02:57:11.098Z,0
2017-02-22T02:58:11.087Z,0
2017-02-22T02:59:11.076Z,0
2017-02-22T03:00:11.067Z,0
2017-02-22T03:01:11.064Z,0
2017-02-22T03:02:11.033Z,0
2017-02-22T03:03:11.024Z,0
2017-02-22T03:04:11.021Z,0
2017-02-22T03:05:10.996Z,0
2017-02-22T03:06:10.603Z,0
2017-02-22T03:07:10.596Z,0
2017-02-22T03:08:10.981Z,0
2017-02-22T03:09:10.948Z,0
2017-02-22T03:10:10.964Z,0
2017-02-22T03:11:10.920Z,0
2017-02-22T03:12:10.911Z,0
2017-02-22T03:13:10.902Z,0
2017-02-22T03:14:10.911Z,0
2017-02-22T03:15:10.479Z,0
2017-02-22T03:16:10.866Z,0
2017-02-22T03:17:10.461Z,0
2017-02-22T03:18:10.866Z,0
2017-02-22T03:19:10.835Z,0
2017-02-22T03:20:10.832Z,0
2017-02-22T03:21:10.823Z,0
2017-02-22T03:22:10.412Z,0
2017-02-22T03:23:10.382Z,0
2017-02-22T03:24:10.381Z,0
2017-02-22T03:25:10.375Z,0
2017-02-22T03:26:10.760Z,0
2017-02-22T03:27:10.739Z,0
2017-02-22T03:28:10.737Z,0
2017-02-22T03:29:10.714Z,0
2017-02-22T03:30:10.736Z,0
2017-02-22T03:31:10.290Z,0
2017-02-22T03:32:10.305Z,0
2017-02-22T03:33:10.656Z,0
2017-02-22T03:34:10.699Z,0
2017-02-22T03:35:10.651Z,0
2017-02-22T03:36:10.628Z,0
2017-02-22T03:37:10.620Z,0
2017-02-22T03:38:10.606Z,0
2017-02-22T03:39:10.603Z,0
2017-02-22T03:40:09.788Z,0
2017-02-22T03:41:10.573Z,0
2017-02-22T03:42:10.157Z,0
2017-02-22T03:43:10.149Z,0
2017-02-22T03:44:10.569Z,0
2017-02-22T03:45:10.530Z,0
2017-02-22T03:46:10.520Z,0
2017-02-22T03:47:10.492Z,0
2017-02-22T03:48:10.498Z,0
2017-02-22T03:49:10.486Z,0
2017-02-22T03:50:10.459Z,0
2017-02-22T03:51:10.461Z,0
2017-02-22T03:52:10.442Z,0
2017-02-22T03:53:10.460Z,0
2017-02-22T03:54:10.434Z,0
2017-02-22T03:55:10.398Z,0
2017-02-22T03:56:10.010Z,0
2017-02-22T03:57:10.016Z,0
2017-02-22T03:58:10.367Z,0
2017-02-22T03:59:09.967Z,0
2017-02-22T04:00:09.947Z,0
2017-02-22T04:01:10.107Z,0
2017-02-22T04:02:09.936Z,0
2017-02-22T04:03:10.211Z,0
2017-02-22T04:04:10.207Z,0
2017-02-22T04:05:09.898Z,0
2017-02-22T04:06:09.892Z,0
2017-02-22T04:07:10.588Z,0
2017-02-22T04:08:09.857Z,0
2017-02-22T04:09:10.250Z,0
2017-02-22T04:10:10.449Z,0
2017-02-22T04:11:10.218Z,0
2017-02-22T04:12:10.221Z,0
2017-02-22T04:13:11.395Z,0
2017-02-22T04:14:09.792Z,0
2017-02-22T04:15:09.781Z,0
2017-02-22T04:16:10.696Z,0
2017-02-22T04:17:10.142Z,0
2017-02-22T04:18:09.759Z,0
2017-02-22T04:19:10.130Z,0
2017-02-22T04:20:09.751Z,0
2017-02-22T04:21:10.468Z,0
2017-02-22T04:22:09.688Z,0
2017-02-22T04:23:10.079Z,0
2017-02-22T04:24:09.670Z,0
2017-02-22T04:25:09.661Z,0
2017-02-22T04:26:10.042Z,0
2017-02-22T04:27:10.032Z,0
2017-02-22T04:28:09.630Z,0
2017-02-22T04:29:10.020Z,0
2017-02-22T04:30:09.634Z,0
2017-02-22T04:31:09.983Z,0
2017-02-22T04:32:09.823Z,0
2017-02-22T04:33:09.971Z,0
2017-02-22T04:34:09.952Z,0
2017-02-22T04:35:10.331Z,0
2017-02-22T04:36:09.926Z,0
2017-02-22T04:37:09.914Z,0
2017-02-22T04:38:10.220Z,0
2017-02-22T04:39:09.904Z,0
2017-02-22T04:40:09.489Z,0
2017-02-22T04:41:10.570Z,0
2017-02-22T04:42:09.867Z,0
2017-02-22T04:43:09.858Z,0
2017-02-22T04:44:10.381Z,0
2017-02-22T04:45:09.849Z,0
2017-02-22T04:46:09.411Z,0
2017-02-22T04:47:10.487Z,0
2017-02-22T04:48:09.419Z,0
2017-02-22T04:49:09.776Z,0
2017-02-22T04:50:10.749Z,0
2017-02-22T04:51:09.374Z,0
2017-02-22T04:52:09.778Z,0
2017-02-22T04:53:09.990Z,0
2017-02-22T04:54:09.728Z,0
2017-02-22T04:55:09.713Z,0
2017-02-22T04:56:09.885Z,0
2017-02-22T04:57:09.711Z,0
2017-02-22T04:58:09.692Z,0
2017-02-22T04:59:09.921Z,0
2017-02-22T05:00:09.671Z,0
2017-02-22T05:01:09.651Z,0
2017-02-22T05:02:10.391Z,0
2017-02-22T05:03:09.637Z,0
2017-02-22T05:04:09.642Z,0
2017-02-22T05:05:09.644Z,0
2017-02-22T05:06:09.606Z,0
2017-02-22T05:07:09.593Z,0
2017-02-22T05:08:09.568Z,0
2017-02-22T05:09:09.168Z,0
2017-02-22T05:10:09.572Z,0
2017-02-22T05:11:09.551Z,0
2017-02-22T05:12:09.525Z,0
2017-02-22T05:13:09.536Z,0
2017-02-22T05:14:09.501Z,0
2017-02-22T05:15:09.518Z,0
2017-02-22T05:16:09.477Z,0
2017-02-22T05:17:09.464Z,0
2017-02-22T05:18:09.462Z,0
2017-02-22T05:19:09.454Z,0
2017-02-22T05:20:09.439Z,0
2017-02-22T05:21:09.431Z,0
2017-02-22T05:22:09.404Z,0
2017-02-22T05:23:09.430Z,0
2017-02-22T05:24:08.991Z,0
2017-02-22T05:25:09.375Z,0
2017-02-22T05:26:09.359Z,0
2017-02-22T05:27:09.362Z,0
2017-02-22T05:28:09.345Z,0
2017-02-22T05:29:09.344Z,0
2017-02-22T05:30:08.923Z,0
2017-02-22T05:31:09.307Z,0
2017-02-22T05:32:09.298Z,0
2017-02-22T05:33:09.289Z,0
2017-02-22T05:34:09.275Z,0
2017-02-22T05:35:09.281Z,0
2017-02-22T05:36:09.265Z,0
2017-02-22T05:37:09.260Z,0
2017-02-22T05:38:09.239Z,0
2017-02-22T05:39:09.212Z,0
2017-02-22T05:40:08.810Z,0
2017-02-22T05:41:08.809Z,0
2017-02-22T05:42:09.195Z,0
2017-02-22T05:43:08.779Z,0
2017-02-22T05:44:09.162Z,0
2017-02-22T05:45:09.164Z,4
2017-02-22T05:46:08.742Z,4
2017-02-22T05:47:09.148Z,0
2017-02-22T05:48:08.729Z,4
2017-02-22T05:49:09.111Z,4
2017-02-22T05:50:09.107Z,4
2017-02-22T05:51:09.089Z,4
2017-02-22T05:52:08.703Z,8
2017-02-22T05:53:09.081Z,8
2017-02-22T05:54:09.067Z,8
2017-02-22T05:55:09.044Z,12
2017-02-22T05:56:09.039Z,12
2017-02-22T05:57:09.030Z,20
2017-02-22T05:58:09.002Z,24
2017-02-22T05:59:09.024Z,24
2017-02-22T06:00:08.588Z,28
2017-02-22T06:01:08.996Z,36
2017-02-22T06:02:08.962Z,44
2017-02-22T06:03:08.981Z,48
2017-02-22T06:04:08.947Z,52
2017-02-22T06:05:08.926Z,52
2017-02-22T06:06:08.913Z,52
2017-02-22T06:07:08.907Z,56
2017-02-22T06:08:08.509Z,72
2017-02-22T06:09:08.886Z,72
2017-02-22T06:10:08.884Z,72
2017-02-22T06:11:08.879Z,80
2017-02-22T06:12:08.873Z,76
2017-02-22T06:13:08.056Z,100
2017-02-22T06:14:08.851Z,116
2017-02-22T06:15:08.426Z,120
2017-02-22T06:16:08.413Z,144
2017-02-22T06:17:08.792Z,160
2017-02-22T06:18:08.799Z,164
2017-02-22T06:19:08.794Z,152
2017-02-22T06:20:08.760Z,152
2017-02-22T06:21:08.753Z,196
2017-02-22T06:22:08.745Z,212
2017-02-22T06:23:08.733Z,240
2017-02-22T06:24:08.328Z,252
2017-02-22T06:25:08.715Z,280
2017-02-22T06:26:08.728Z,300
2017-02-22T06:27:08.683Z,328
2017-02-22T06:28:08.678Z,332
2017-02-22T06:29:08.677Z,316
2017-02-22T06:30:08.685Z,324
2017-02-22T06:31:08.263Z,388
2017-02-22T06:32:08.228Z,432
2017-02-22T06:33:08.641Z,432
2017-02-22T06:34:08.214Z,456
2017-02-22T06:35:08.634Z,440
2017-02-22T06:36:08.585Z,500
2017-02-22T06:37:08.230Z,500
2017-02-22T06:38:08.567Z,520
2017-02-22T06:39:08.553Z,588
2017-02-22T06:40:08.168Z,676
2017-02-22T06:41:08.543Z,592
2017-02-22T06:42:08.165Z,608
2017-02-22T06:43:08.527Z,656
2017-02-22T06:44:08.524Z,632
2017-02-22T06:45:08.088Z,680
2017-02-22T06:46:08.091Z,652
2017-02-22T06:47:08.463Z,724
2017-02-22T06:48:08.482Z,660
2017-02-22T06:49:08.468Z,636
2017-02-22T06:50:08.434Z,652
2017-02-22T06:51:08.425Z,652
2017-02-22T06:52:08.434Z,628
2017-02-22T06:53:08.412Z,816
2017-02-22T06:54:08.402Z,728
2017-02-22T06:55:08.424Z,612
2017-02-22T06:56:08.374Z,612
2017-02-22T06:57:08.361Z,648
2017-02-22T06:58:07.948Z,632
2017-02-22T06:59:08.335Z,688
2017-02-22T07:00:08.334Z,876
2017-02-22T07:01:08.325Z,820
2017-02-22T07:02:08.307Z,696
2017-02-22T07:03:08.294Z,620
2017-02-22T07:04:08.316Z,556
2017-02-22T07:05:08.283Z,596
2017-02-22T07:06:08.264Z,724
2017-02-22T07:07:08.270Z,716
2017-02-22T07:08:08.248Z,784
2017-02-22T07:09:08.235Z,752
2017-02-22T07:10:08.240Z,964
2017-02-22T07:11:08.219Z,892
2017-02-22T07:12:08.215Z,908
2017-02-22T07:13:08.205Z,1208
2017-02-22T07:14:08.183Z,1140
2017-02-22T07:15:08.170Z,1076
2017-02-22T07:16:07.769Z,1504
2017-02-22T07:17:08.150Z,1304
2017-02-22T07:18:07.737Z,1676
2017-02-22T07:19:08.125Z,1828
2017-02-22T07:20:07.735Z,1460
2017-02-22T07:21:08.112Z,1472
2017-02-22T07:22:08.100Z,1580
2017-02-22T07:23:08.082Z,1828
2017-02-22T07:24:08.092Z,1708
2017-02-22T07:25:08.071Z,1392
2017-02-22T07:26:08.053Z,1292
2017-02-22T07:27:08.048Z,992
2017-02-22T07:28:08.071Z,1280
2017-02-22T07:29:08.020Z,1456
2017-02-22T07:30:08.012Z,1564
2017-02-22T07:31:08.007Z,1524
2017-02-22T07:32:07.991Z,1744
2017-02-22T07:33:07.978Z,1980
2017-02-22T07:34:07.984Z,1512
2017-02-22T07:35:07.980Z,1872
2017-02-22T07:36:07.958Z,1580
2017-02-22T07:37:07.557Z,1428
2017-02-22T07:38:07.925Z,1688
2017-02-22T07:39:07.919Z,2932
2017-02-22T07:40:07.910Z,3148
2017-02-22T07:41:07.903Z,3372
2017-02-22T07:42:07.485Z,3408
2017-02-22T07:43:07.886Z,3348
2017-02-22T07:44:07.861Z,2728
2017-02-22T07:45:07.872Z,2268
2017-02-22T07:46:07.843Z,2896
2017-02-22T07:47:07.833Z,3636
2017-02-22T07:48:07.838Z,4400
2017-02-22T07:49:07.818Z,4624
2017-02-22T07:50:07.818Z,4520
2017-02-22T07:51:07.813Z,4628
2017-02-22T07:52:07.786Z,5020
2017-02-22T07:53:07.778Z,5488
2017-02-22T07:54:07.392Z,5596
2017-02-22T07:55:07.358Z,6208
2017-02-22T07:56:07.741Z,5968
2017-02-22T07:57:07.731Z,5972
2017-02-22T07:58:07.334Z,6024
2017-02-22T07:59:07.722Z,6116
2017-02-22T08:00:07.721Z,6308
2017-02-22T08:01:07.708Z,6364
2017-02-22T08:02:07.683Z,6344
2017-02-22T08:03:07.686Z,6280
2017-02-22T08:04:07.674Z,6192
2017-02-22T08:05:07.666Z,5700
2017-02-22T08:06:07.656Z,6128
2017-02-22T08:07:07.642Z,6508
2017-02-22T08:08:07.648Z,6912
2017-02-22T08:09:07.638Z,6920
2017-02-22T08:10:07.631Z,6312
2017-02-22T08:11:07.619Z,6228
2017-02-22T08:12:07.599Z,5692
2017-02-22T08:13:07.581Z,4704
2017-02-22T08:14:07.579Z,3564
2017-02-22T08:15:07.567Z,3748
2017-02-22T08:16:07.558Z,5816
2017-02-22T08:17:07.556Z,6672
2017-02-22T08:18:07.526Z,6848
2017-02-22T08:19:07.544Z,6916
2017-02-22T08:20:07.531Z,5888
2017-02-22T08:21:07.519Z,6432
2017-02-22T08:22:07.502Z,5268
2017-02-22T08:23:07.486Z,5184
2017-02-22T08:24:07.482Z,5608
2017-02-22T08:25:07.487Z,5584
2017-02-22T08:26:07.489Z,5488
2017-02-22T08:27:07.069Z,6048
2017-02-22T08:28:07.435Z,4952
2017-02-22T08:29:07.432Z,3724
2017-02-22T08:30:07.418Z,3172
2017-02-22T08:31:07.426Z,2648
2017-02-22T08:32:07.422Z,2312
2017-02-22T08:33:07.419Z,2760
2017-02-22T08:34:07.390Z,2572
2017-02-22T08:35:07.382Z,3008
2017-02-22T08:36:07.366Z,2892
2017-02-22T08:37:07.356Z,2244
2017-02-22T08:38:07.348Z,2000
2017-02-22T08:39:07.341Z,1840
2017-02-22T08:40:07.349Z,1908
2017-02-22T08:41:07.326Z,1620
2017-02-22T08:42:07.313Z,1776
2017-02-22T08:43:07.300Z,1608
2017-02-22T08:44:07.330Z,2004
2017-02-22T08:45:07.288Z,1628
2017-02-22T08:46:07.271Z,1360
2017-02-22T08:47:07.305Z,1336
2017-02-22T08:48:06.872Z,1328
2017-02-22T08:49:07.267Z,2456
2017-02-22T08:50:07.268Z,1540
2017-02-22T08:51:07.244Z,2248
2017-02-22T08:52:07.235Z,1816
2017-02-22T08:53:07.224Z,2148
2017-02-22T08:54:07.209Z,1280
2017-02-22T08:55:07.204Z,1240
2017-02-22T08:56:07.188Z,1136
2017-02-22T08:57:07.172Z,1416
2017-02-22T08:58:07.171Z,1672
2017-02-22T08:59:07.147Z,2012
2017-02-22T09:00:07.143Z,1924
2017-02-22T09:01:07.141Z,1484
2017-02-22T09:02:07.118Z,1516
2017-02-22T09:03:07.118Z,1980
2017-02-22T09:04:07.128Z,2524
2017-02-22T09:05:07.122Z,1472
2017-02-22T09:06:07.093Z,1496
2017-02-22T09:07:07.073Z,1476
2017-02-22T09:08:07.073Z,2232
2017-02-22T09:09:06.672Z,2516
2017-02-22T09:10:06.648Z,2964
2017-02-22T09:11:07.041Z,2280
2017-02-22T09:12:07.033Z,3000
2017-02-22T09:13:07.020Z,2252
2017-02-22T09:14:07.022Z,2764
2017-02-22T09:15:07.010Z,2436
2017-02-22T09:16:06.979Z,4280
2017-02-22T09:17:06.987Z,3252
2017-02-22T09:18:06.971Z,3796
2017-02-22T09:19:06.960Z,2996
2017-02-22T09:20:06.557Z,2864
2017-02-22T09:21:06.948Z,2240
2017-02-22T09:22:06.932Z,2064
2017-02-22T09:23:06.932Z,2084
2017-02-22T09:24:06.915Z,2064
2017-02-22T09:25:06.915Z,1560
2017-02-22T09:26:06.889Z,1624
2017-02-22T09:27:06.869Z,1332
2017-02-22T09:28:06.862Z,1660
2017-02-22T09:29:06.852Z,1712
2017-02-22T09:30:06.870Z,1460
2017-02-22T09:31:06.858Z,1544
2017-02-22T09:32:06.824Z,1300
2017-02-22T09:33:06.845Z,1168
2017-02-22T09:34:06.809Z,1588
2017-02-22T09:35:06.792Z,1928
2017-02-22T09:36:06.791Z,2260
2017-02-22T09:37:06.789Z,2068
2017-02-22T09:38:06.763Z,3772
2017-02-22T09:39:06.763Z,4096
2017-02-22T09:40:06.741Z,3368
2017-02-22T09:41:06.747Z,3984
2017-02-22T09:42:06.733Z,4640
2017-02-22T09:43:06.708Z,4036
2017-02-22T09:44:06.715Z,3996
2017-02-22T09:45:06.704Z,3468
2017-02-22T09:46:06.702Z,3268
2017-02-22T09:47:06.705Z,4736
2017-02-22T09:48:06.672Z,4452
2017-02-22T09:49:06.664Z,4324
2017-02-22T09:50:06.692Z,5324
2017-02-22T09:51:06.652Z,5152
2017-02-22T09:52:06.651Z,4500
2017-02-22T09:53:06.213Z,4748
2017-02-22T09:54:06.669Z,3120
2017-02-22T09:55:06.607Z,3156
2017-02-22T09:56:06.205Z,3772
2017-02-22T09:57:06.600Z,2388
2017-02-22T09:58:06.585Z,3636
2017-02-22T09:59:06.548Z,3444
2017-02-22T10:00:06.554Z,3268
2017-02-22T10:01:06.560Z,4748
2017-02-22T10:02:06.134Z,4216
2017-02-22T10:03:06.522Z,3948
2017-02-22T10:04:06.514Z,7120
2017-02-22T10:05:06.503Z,7780
2017-02-22T10:06:06.516Z,7708
2017-02-22T10:07:06.483Z,5880
2017-02-22T10:08:06.468Z,6880
2017-02-22T10:09:06.468Z,5480
2017-02-22T10:10:06.448Z,5132
2017-02-22T10:11:06.444Z,5152
2017-02-22T10:12:06.042Z,4272
2017-02-22T10:13:06.443Z,4496
2017-02-22T10:14:06.028Z,4088
2017-02-22T10:15:06.416Z,4180
2017-02-22T10:16:05.607Z,4084
2017-02-22T10:17:06.387Z,2732
2017-02-22T10:18:06.374Z,2948
2017-02-22T10:19:06.377Z,2692
2017-02-22T10:20:06.356Z,2552
2017-02-22T10:21:06.354Z,2692
2017-02-22T10:22:06.365Z,2296
2017-02-22T10:23:05.523Z,2096
2017-02-22T10:24:06.316Z,1848
2017-02-22T10:25:05.904Z,1852
2017-02-22T10:26:06.369Z,1648
2017-02-22T10:27:06.278Z,1516
2017-02-22T10:28:06.277Z,1364
2017-02-22T10:29:05.893Z,1276
2017-02-22T10:30:06.274Z,1220
2017-02-22T10:31:05.862Z,1224
2017-02-22T10:32:06.245Z,1080
2017-02-22T10:33:05.831Z,1176
2017-02-22T10:34:06.213Z,1192
2017-02-22T10:35:05.810Z,1280
2017-02-22T10:36:06.216Z,1580
2017-02-22T10:37:05.787Z,1564
2017-02-22T10:38:06.180Z,1652
2017-02-22T10:39:05.777Z,1668
2017-02-22T10:40:06.162Z,1760
2017-02-22T10:41:05.792Z,2200
2017-02-22T10:42:05.736Z,2276
2017-02-22T10:43:05.751Z,2300
2017-02-22T10:44:05.725Z,2416
2017-02-22T10:45:05.703Z,2312
2017-02-22T10:46:05.707Z,2752
2017-02-22T10:47:05.688Z,2344
2017-02-22T10:48:06.075Z,2356
2017-02-22T10:49:06.079Z,2340
2017-02-22T10:50:05.279Z,2496
2017-02-22T10:51:06.052Z,2652
2017-02-22T10:52:06.033Z,2284
2017-02-22T10:53:06.039Z,1924
2017-02-22T10:54:06.021Z,1812
2017-02-22T10:55:06.023Z,2384
2017-02-22T10:56:06.021Z,1768
2017-02-22T10:57:05.587Z,1932
2017-02-22T10:58:05.980Z,1976
2017-02-22T10:59:05.959Z,1868
2017-02-22T11:00:05.554Z,2004
2017-02-22T11:01:05.960Z,2052
2017-02-22T11:02:05.945Z,2464
2017-02-22T11:03:05.919Z,2280
2017-02-22T11:04:05.953Z,2300
2017-02-22T11:05:05.545Z,2340
2017-02-22T11:06:05.908Z,1880
2017-02-22T11:07:05.890Z,1960
2017-02-22T11:08:05.889Z,1884
2017-02-22T11:09:05.884Z,2228
2017-02-22T11:10:05.467Z,1964
2017-02-22T11:11:05.860Z,2464
2017-02-22T11:12:05.840Z,2844
2017-02-22T11:13:05.826Z,2236
2017-02-22T11:14:05.422Z,2400
2017-02-22T11:15:05.019Z,1708
2017-02-22T11:16:05.792Z,1788
2017-02-22T11:17:05.785Z,1544
2017-02-22T11:18:05.776Z,1460
2017-02-22T11:19:05.761Z,1360
2017-02-22T11:20:05.773Z,1588
2017-02-22T11:21:05.359Z,1552
2017-02-22T11:22:05.745Z,1592
2017-02-22T11:23:05.723Z,1844
2017-02-22T11:24:05.719Z,1684
2017-02-22T11:25:05.702Z,1728
2017-02-22T11:26:05.708Z,1756
2017-02-22T11:27:05.288Z,1540
2017-02-22T11:28:05.671Z,1532
2017-02-22T11:29:05.668Z,1460
2017-02-22T11:30:05.653Z,1576
2017-02-22T11:31:05.660Z,1604
2017-02-22T11:32:05.264Z,1252
2017-02-22T11:33:05.637Z,1264
2017-02-22T11:34:05.619Z,1592
2017-02-22T11:35:05.204Z,1576
2017-02-22T11:36:05.610Z,1596
2017-02-22T11:37:05.188Z,1400
2017-02-22T11:38:05.584Z,1768
2017-02-22T11:39:05.561Z,1756
2017-02-22T11:40:05.567Z,1900
2017-02-22T11:41:05.552Z,1776
2017-02-22T11:42:05.127Z,1932
2017-02-22T11:43:05.146Z,1892
2017-02-22T11:44:05.513Z,1708
2017-02-22T11:45:05.489Z,1516
2017-02-22T11:46:05.514Z,1660
2017-02-22T11:47:05.482Z,1684
2017-02-22T11:48:05.467Z,1568
2017-02-22T11:49:05.461Z,2036
2017-02-22T11:50:05.465Z,2196
2017-02-22T11:51:05.448Z,1892
2017-02-22T11:52:05.423Z,2356
2017-02-22T11:53:05.029Z,2148
2017-02-22T11:54:05.435Z,2724
2017-02-22T11:55:05.406Z,2772
2017-02-22T11:56:05.380Z,2600
2017-02-22T11:57:05.368Z,2104
2017-02-22T11:58:05.365Z,2308
2017-02-22T11:59:05.355Z,1948
2017-02-22T12:00:05.350Z,2276
2017-02-22T12:01:05.346Z,2192
2017-02-22T12:02:04.942Z,2280
2017-02-22T12:03:05.306Z,1920
2017-02-22T12:04:05.307Z,1864
2017-02-22T12:05:05.291Z,2024
2017-02-22T12:06:05.295Z,1936
2017-02-22T12:07:05.277Z,1924
2017-02-22T12:08:05.267Z,2472
2017-02-22T12:09:05.255Z,2312
2017-02-22T12:10:04.859Z,2620
2017-02-22T12:11:05.239Z,2552
2017-02-22T12:12:05.221Z,2784
2017-02-22T12:13:05.200Z,2812
2017-02-22T12:14:05.261Z,2376
2017-02-22T12:15:05.185Z,2960
2017-02-22T12:16:05.178Z,2748
2017-02-22T12:17:05.173Z,3160
2017-02-22T12:18:05.161Z,2932
2017-02-22T12:19:05.150Z,2748
2017-02-22T12:20:05.163Z,3632
2017-02-22T12:21:05.131Z,3496
2017-02-22T12:22:05.105Z,3752
2017-02-22T12:23:05.094Z,3220
2017-02-22T12:24:04.706Z,2744
2017-02-22T12:25:04.685Z,3056
2017-02-22T12:26:05.061Z,2968
2017-02-22T12:27:05.052Z,3732
2017-02-22T12:28:05.047Z,3192
2017-02-22T12:29:05.041Z,3316
2017-02-22T12:30:05.035Z,3528
2017-02-22T12:31:04.636Z,4164
2017-02-22T12:32:04.604Z,3848
2017-02-22T12:33:04.995Z,3684
2017-02-22T12:34:04.598Z,4128
2017-02-22T12:35:04.582Z,3532
2017-02-22T12:36:04.566Z,3944
2017-02-22T12:37:04.554Z,3480
2017-02-22T12:38:04.941Z,3936
2017-02-22T12:39:04.922Z,3492
2017-02-22T12:40:04.950Z,3780
2017-02-22T12:41:04.905Z,3756
2017-02-22T12:42:04.909Z,3500
2017-02-22T12:43:04.898Z,4028
2017-02-22T12:44:04.873Z,3340
2017-02-22T12:45:04.877Z,3752
2017-02-22T12:46:04.855Z,3648
2017-02-22T12:47:04.849Z,3236
2017-02-22T12:48:04.847Z,3472
2017-02-22T12:49:04.835Z,3424
2017-02-22T12:50:04.810Z,3744
2017-02-22T12:51:04.800Z,3960
2017-02-22T12:52:04.792Z,3912
2017-02-22T12:53:04.783Z,2728
2017-02-22T12:54:04.403Z,2256
2017-02-22T12:55:04.772Z,3316
2017-02-22T12:56:04.758Z,3032
2017-02-22T12:57:04.753Z,2952
2017-02-22T12:58:04.734Z,3284
2017-02-22T12:59:04.725Z,3216
2017-02-22T13:00:04.727Z,3612
2017-02-22T13:01:04.308Z,2728
2017-02-22T13:02:04.707Z,2684
2017-02-22T13:03:04.682Z,2180
2017-02-22T13:04:04.689Z,2432
2017-02-22T13:05:04.666Z,2028
2017-02-22T13:06:04.656Z,2464
2017-02-22T13:07:04.254Z,2120
2017-02-22T13:08:04.229Z,2292
2017-02-22T13:09:04.618Z,2328
2017-02-22T13:10:04.608Z,2220
2017-02-22T13:11:04.595Z,2296
2017-02-22T13:12:04.582Z,2104
2017-02-22T13:13:04.579Z,2040
2017-02-22T13:14:04.569Z,1968
2017-02-22T13:15:04.568Z,2620
2017-02-22T13:16:04.144Z,2688
2017-02-22T13:17:04.143Z,2448
2017-02-22T13:18:04.514Z,3080
2017-02-22T13:19:04.106Z,3676
2017-02-22T13:20:04.493Z,3380
2017-02-22T13:21:04.495Z,2516
2017-02-22T13:22:04.481Z,2924
2017-02-22T13:23:04.468Z,3164
2017-02-22T13:24:04.468Z,3276
2017-02-22T13:25:04.447Z,3212
2017-02-22T13:26:04.448Z,3032
2017-02-22T13:27:04.039Z,4228
2017-02-22T13:28:04.413Z,3328
2017-02-22T13:29:04.427Z,3720
2017-02-22T13:30:04.391Z,3080
2017-02-22T13:31:04.382Z,3088
2017-02-22T13:32:04.389Z,4016
2017-02-22T13:33:03.960Z,3732
2017-02-22T13:34:04.377Z,4704
2017-02-22T13:35:04.359Z,3248
2017-02-22T13:36:04.329Z,2796
2017-02-22T13:37:03.923Z,3064
2017-02-22T13:38:04.321Z,3164
2017-02-22T13:39:04.295Z,2804
2017-02-22T13:40:04.292Z,2644
2017-02-22T13:41:04.296Z,3000
2017-02-22T13:42:04.279Z,2716
2017-02-22T13:43:04.277Z,2788
2017-02-22T13:44:04.236Z,2916
2017-02-22T13:45:04.245Z,2936
2017-02-22T13:46:03.431Z,2992
2017-02-22T13:47:04.207Z,2388
2017-02-22T13:48:04.217Z,2516
2017-02-22T13:49:04.192Z,1996
2017-02-22T13:50:04.226Z,2040
2017-02-22T13:51:04.210Z,1608
2017-02-22T13:52:04.166Z,2024
2017-02-22T13:53:03.761Z,1704
2017-02-22T13:54:03.736Z,1584
2017-02-22T13:55:04.139Z,2044
2017-02-22T13:56:04.114Z,1656
2017-02-22T13:57:04.112Z,1572